Time;durP1;ratioP1;P1;durP2;ratioP2;P2;SDS_P1;SDS_P2;PMS_P1;PMS_P2;Temp;Humidity;BMP_temperature;BMP_pressure;BME280_temperature;BME280_humidity;BME280_pressure;Samples;Min_cycle;Max_cycle;Signal;HPM_P1;HPM_P2
2022/05/18 00:05:51;;;;;;;5.03;3.30;;;24.70;70.70;;;;;;10945793;32;20014;-73
2022/05/18 00:11:53;;;;;;;6.72;4.28;;;24.60;70.80;;;;;;10944863;32;20023;-73
2022/05/18 00:17:56;;;;;;;6.60;4.18;;;24.60;71.10;;;;;;10945511;32;20053;-73
2022/05/18 00:23:58;;;;;;;4.95;3.60;;;24.60;71.00;;;;;;10945134;32;20055;-73
2022/05/18 00:30:00;;;;;;;4.97;4.03;;;24.60;71.10;;;;;;10945044;32;20391;-73
2022/05/18 00:36:02;;;;;;;6.22;4.22;;;24.50;71.10;;;;;;10944876;32;20046;-73
2022/05/18 00:42:05;;;;;;;6.62;4.12;;;24.40;71.10;;;;;;10944535;32;20046;-73
2022/05/18 00:48:07;;;;;;;6.53;4.45;;;24.50;71.40;;;;;;10944270;32;20023;-73
2022/05/18 00:54:23;;;;;;;5.70;4.10;;;24.40;71.30;;;;;;10944187;32;20023;-73
2022/05/18 01:00:25;;;;;;;6.40;4.55;;;24.50;71.30;;;;;;10939710;32;20045;-73
2022/05/18 01:06:35;;;;;;;7.25;4.80;;;24.50;71.50;;;;;;10943424;32;20061;-74
2022/05/18 01:12:37;;;;;;;5.82;4.35;;;24.40;71.80;;;;;;10944968;27;20016;-73
2022/05/18 01:18:42;;;;;;;5.00;3.58;;;24.30;71.70;;;;;;10905369;32;20027;-74
2022/05/18 01:25:07;;;;;;;5.68;4.20;;;24.30;71.70;;;;;;10905009;32;20057;-74
2022/05/18 01:31:10;;;;;;;6.43;4.70;;;24.40;71.90;;;;;;10905071;32;20081;-74
2022/05/18 01:37:14;;;;;;;8.32;5.97;;;24.30;71.80;;;;;;10905084;32;20011;-74
2022/05/18 01:43:22;;;;;;;5.32;3.65;;;24.30;71.80;;;;;;10904767;32;20018;-74
2022/05/18 01:49:24;;;;;;;6.57;4.75;;;24.20;71.80;;;;;;10892085;32;20053;-74
2022/05/18 01:55:26;;;;;;;6.62;4.82;;;24.20;72.10;;;;;;10901780;32;20023;-73
2022/05/18 02:01:28;;;;;;;6.82;5.37;;;24.30;72.30;;;;;;10904462;32;20054;-72
2022/05/18 02:07:30;;;;;;;9.25;7.40;;;24.10;72.80;;;;;;10904168;32;20031;-73
2022/05/18 02:13:32;;;;;;;7.22;5.60;;;24.00;73.30;;;;;;10904378;32;20395;-73
2022/05/18 02:19:34;;;;;;;9.73;6.22;;;23.90;73.70;;;;;;10901651;32;20023;-72
2022/05/18 02:25:37;;;;;;;8.35;6.25;;;23.80;73.80;;;;;;10902636;32;20027;-72
2022/05/18 02:31:39;;;;;;;7.28;4.82;;;23.80;73.90;;;;;;10903975;32;20047;-73
2022/05/18 02:37:41;;;;;;;8.95;5.35;;;23.80;73.50;;;;;;10895671;32;20046;-74
2022/05/18 02:43:44;;;;;;;7.40;4.97;;;23.90;73.30;;;;;;10910981;32;20031;-73
2022/05/18 02:49:46;;;;;;;8.00;6.32;;;23.80;73.20;;;;;;10910967;32;20054;-72
2022/05/18 02:56:06;;;;;;;6.20;3.97;;;23.90;73.00;;;;;;10910550;32;20046;-72
2022/05/18 03:02:08;;;;;;;4.90;3.25;;;23.80;72.80;;;;;;10897002;32;20018;-73
2022/05/18 03:08:10;;;;;;;3.50;2.62;;;23.90;72.90;;;;;;10906654;32;20399;-72
2022/05/18 03:14:21;;;;;;;4.72;3.37;;;23.80;72.70;;;;;;10909774;32;20023;-72
2022/05/18 03:26:44;;;;;;;4.90;2.62;;;23.80;72.80;;;;;;10908007;32;20019;-73
2022/05/18 03:32:47;;;;;;;4.72;2.92;;;23.80;72.70;;;;;;10909342;32;20400;-73
2022/05/18 03:38:50;;;;;;;6.22;2.40;;;23.80;72.90;;;;;;10905723;32;20434;-72
2022/05/18 03:44:52;;;;;;;5.37;2.70;;;23.80;73.10;;;;;;10908814;32;20050;-73
2022/05/18 03:50:57;;;;;;;5.60;4.20;;;23.70;73.10;;;;;;10908755;32;20405;-72
2022/05/18 03:56:59;;;;;;;6.07;3.72;;;23.70;73.20;;;;;;10908600;32;20312;-74
2022/05/18 04:03:02;;;;;;;4.45;3.05;;;23.60;73.40;;;;;;10908094;32;20388;-72
2022/05/18 04:09:04;;;;;;;4.00;2.65;;;23.50;73.30;;;;;;10894772;32;20028;-73
2022/05/18 04:15:07;;;;;;;3.80;2.30;;;23.50;73.20;;;;;;10907877;32;20019;-72
2022/05/18 04:21:09;;;;;;;4.43;2.58;;;23.50;72.90;;;;;;10907563;32;20093;-73
2022/05/18 04:27:11;;;;;;;4.97;2.45;;;23.50;73.00;;;;;;10907393;32;20388;-73
2022/05/18 04:33:18;;;;;;;2.33;1.65;;;23.50;73.10;;;;;;10905456;32;20043;-72
2022/05/18 04:39:20;;;;;;;7.57;2.37;;;23.40;73.60;;;;;;10906102;32;20281;-73
2022/05/18 04:45:22;;;;;;;5.53;1.80;;;23.40;74.00;;;;;;10905572;32;20027;-73
2022/05/18 04:51:33;;;;;;;8.10;1.80;;;23.30;73.80;;;;;;10905587;32;20019;-73
2022/05/18 04:58:06;;;;;;;3.05;1.60;;;23.40;74.20;;;;;;10904589;32;20345;-73
2022/05/18 05:04:09;;;;;;;2.17;1.27;;;23.40;74.20;;;;;;10786758;32;20381;-73
2022/05/18 05:10:11;;;;;;;1.58;1.15;;;23.40;74.00;;;;;;10785176;33;20036;-72
2022/05/18 05:16:15;;;;;;;4.87;1.42;;;23.40;74.00;;;;;;10789996;33;20086;-73
2022/05/18 05:22:16;;;;;;;1.52;1.27;;;23.50;74.10;;;;;;10787942;33;20032;-72
2022/05/18 05:28:19;;;;;;;4.43;1.50;;;23.40;74.20;;;;;;10788795;33;20048;-72
2022/05/18 05:34:21;;;;;;;2.90;1.80;;;23.40;74.20;;;;;;10789671;33;20032;-73
2022/05/18 05:40:23;;;;;;;4.80;2.03;;;23.40;74.00;;;;;;10868699;32;20024;-72
2022/05/18 05:46:27;;;;;;;6.07;2.03;;;23.40;73.90;;;;;;10903829;32;20343;-71
2022/05/18 05:52:29;;;;;;;3.60;1.73;;;23.40;74.40;;;;;;10899207;32;20081;-72
2022/05/18 05:58:33;;;;;;;3.33;2.20;;;23.30;74.50;;;;;;10890765;32;20299;-72
2022/05/18 06:04:36;;;;;;;7.72;2.33;;;23.40;74.40;;;;;;10899693;32;20027;-72
2022/05/18 06:10:39;;;;;;;2.05;1.48;;;23.40;74.50;;;;;;10900536;32;20071;-72
2022/05/18 06:17:00;;;;;;;5.57;1.85;;;23.40;74.70;;;;;;10890294;32;20027;-71
2022/05/18 06:23:07;;;;;;;4.25;1.83;;;23.50;74.30;;;;;;10903612;32;20022;-73
2022/05/18 06:29:10;;;;;;;4.62;2.10;;;23.60;74.20;;;;;;10899085;32;20055;-72
2022/05/18 06:35:13;;;;;;;1.60;1.35;;;23.60;74.30;;;;;;10910251;32;20328;-72
2022/05/18 06:41:21;;;;;;;2.28;1.45;;;23.60;74.20;;;;;;10896675;32;20037;-72
2022/05/18 06:47:44;;;;;;;3.60;2.22;;;23.70;73.90;;;;;;10909700;32;20116;-72
2022/05/18 06:53:59;;;;;;;2.75;1.62;;;23.80;73.60;;;;;;10907227;32;20045;-72
2022/05/18 07:00:04;;;;;;;4.85;2.28;;;23.80;73.70;;;;;;10875524;32;20420;-72
2022/05/18 07:06:07;;;;;;;2.92;2.05;;;23.80;73.80;;;;;;10871632;32;20060;-72
2022/05/18 07:12:09;;;;;;;2.78;1.67;;;23.80;73.80;;;;;;10871404;32;20027;-72
2022/05/18 07:18:12;;;;;;;4.60;2.78;;;23.80;73.50;;;;;;10858102;32;20293;-73
2022/05/18 07:24:24;;;;;;;3.25;2.37;;;23.80;73.50;;;;;;10891257;32;20347;-72
2022/05/18 07:30:26;;;;;;;2.50;1.65;;;23.80;73.20;;;;;;10877706;32;20028;-72
2022/05/18 07:36:29;;;;;;;6.53;2.90;;;23.80;73.30;;;;;;10901421;32;20035;-72
2022/05/18 07:42:32;;;;;;;3.90;2.40;;;23.80;73.10;;;;;;10904907;32;20019;-73
2022/05/18 07:48:35;;;;;;;4.10;2.83;;;24.10;72.90;;;;;;10908180;32;20023;-75
2022/05/18 07:54:38;;;;;;;6.45;3.75;;;24.30;72.20;;;;;;10907566;32;20020;-72
2022/05/18 08:00:41;;;;;;;5.50;2.17;;;24.60;71.70;;;;;;10906378;32;20054;-74
2022/05/18 08:06:43;;;;;;;6.65;4.72;;;24.90;71.30;;;;;;10904967;32;20023;-74
2022/05/18 08:19:11;;;;;;;7.53;5.05;;;24.90;71.20;;;;;;10906534;32;20050;-75
2022/05/18 08:25:14;;;;;;;15.47;6.77;;;24.60;71.80;;;;;;10902417;32;20057;-74
2022/05/18 08:31:21;;;;;;;7.68;5.10;;;24.60;72.00;;;;;;10905212;32;20070;-75
2022/05/18 08:37:24;;;;;;;5.87;4.22;;;24.80;71.60;;;;;;10906765;32;20388;-75
2022/05/18 08:43:33;;;;;;;9.60;6.22;;;25.00;71.00;;;;;;10893178;32;20027;-73
2022/05/18 08:49:46;;;;;;;4.47;3.37;;;25.20;70.80;;;;;;10905113;32;20062;-74
2022/05/18 08:56:01;;;;;;;6.37;2.85;;;25.30;70.30;;;;;;10905943;32;20032;-75
2022/05/18 09:02:16;;;;;;;13.43;3.95;;;25.40;69.70;;;;;;10905270;32;20031;-74
2022/05/18 09:08:34;;;;;;;6.05;2.72;;;25.70;68.70;;;;;;10905308;32;20050;-73
2022/05/18 09:14:38;;;;;;;2.15;1.77;;;25.80;67.00;;;;;;10467745;27;14017010;-74
2022/05/18 09:20:45;;;;;;;5.25;2.12;;;25.90;66.10;;;;;;10828068;32;20063;-73
2022/05/18 09:26:54;;;;;;;15.80;2.78;;;26.20;64.80;;;;;;10814679;32;20352;-73
2022/05/18 09:33:07;;;;;;;26.45;4.30;;;26.40;63.40;;;;;;10826495;32;20352;-71
2022/05/18 09:39:13;;;;;;;20.67;3.15;;;26.50;62.80;;;;;;10827418;32;20028;-74
2022/05/18 09:45:25;;;;;;;13.10;3.67;;;26.60;61.80;;;;;;10940596;32;20030;-74
2022/05/18 09:51:36;;;;;;;19.30;3.80;;;26.50;61.40;;;;;;10941110;32;20063;-73
2022/05/18 09:57:48;;;;;;;7.70;2.80;;;26.50;61.00;;;;;;10941372;32;20031;-74
2022/05/18 10:11:24;;;;;;;2.40;1.70;;;26.90;59.90;;;;;;10936663;32;20053;-73
2022/05/18 10:17:36;;;;;;;5.20;2.10;;;27.00;59.80;;;;;;10941425;32;20023;-74
2022/05/18 10:23:50;;;;;;;3.03;1.83;;;27.30;58.60;;;;;;10937198;32;20414;-74
2022/05/18 10:30:14;;;;;;;4.85;1.73;;;27.40;57.90;;;;;;10941091;32;20023;-73
2022/05/18 10:36:46;;;;;;;2.40;1.40;;;27.70;56.70;;;;;;10940848;32;20391;-74
2022/05/18 10:43:15;;;;;;;6.40;2.35;;;27.80;56.50;;;;;;10939282;32;20022;-73
2022/05/18 10:49:29;;;;;;;2.85;1.52;;;27.70;56.10;;;;;;10940654;32;20050;-74
2022/05/18 10:55:32;;;;;;;2.53;1.83;;;27.40;56.10;;;;;;10942186;32;20045;-75
2022/05/18 11:01:44;;;;;;;2.87;1.85;;;27.20;56.10;;;;;;10946994;32;20023;-74
2022/05/18 11:07:48;;;;;;;2.65;1.85;;;27.30;55.50;;;;;;10947180;32;20027;-74
2022/05/18 11:13:59;;;;;;;2.42;1.08;;;28.10;54.40;;;;;;10945943;32;20046;-74
2022/05/18 11:20:26;;;;;;;3.42;1.90;;;28.30;53.80;;;;;;10946896;32;20051;-73
2022/05/18 11:27:11;;;;;;;12.20;2.35;;;28.70;52.50;;;;;;10946796;32;20331;-73
2022/05/18 11:33:39;;;;;;;2.90;2.28;;;28.90;51.50;;;;;;10946888;32;20057;-74
2022/05/18 11:40:17;;;;;;;2.37;1.58;;;29.20;50.70;;;;;;10946429;32;20023;-74
2022/05/18 11:46:33;;;;;;;1.77;1.42;;;29.30;51.00;;;;;;10943397;32;20331;-74
2022/05/18 11:52:55;;;;;;;4.35;2.50;;;29.40;51.10;;;;;;10946004;32;20030;-73
2022/05/18 11:59:44;;;;;;;2.35;1.37;;;29.30;50.50;;;;;;10941452;32;20027;-74
2022/05/18 12:06:19;;;;;;;8.15;2.30;;;29.60;49.60;;;;;;10927189;32;20112;-74
2022/05/18 12:12:53;;;;;;;3.50;1.95;;;29.60;49.40;;;;;;10932203;32;20049;-73
2022/05/18 12:19:08;;;;;;;3.37;1.98;;;29.70;48.80;;;;;;10932072;32;20045;-74
2022/05/18 12:25:13;;;;;;;2.65;1.58;;;29.70;48.20;;;;;;10945544;32;20031;-74
2022/05/18 12:31:17;;;;;;;3.85;2.25;;;29.70;48.20;;;;;;10945138;32;20034;-73
2022/05/18 12:38:01;;;;;;;2.35;1.75;;;29.70;47.50;;;;;;10931772;32;20343;-74
2022/05/18 12:44:08;;;;;;;4.25;1.55;;;29.70;46.80;;;;;;10756209;32;20082;-73
2022/05/18 12:50:29;;;;;;;5.47;2.30;;;29.70;46.10;;;;;;10725930;33;20090;-77
2022/05/18 12:56:36;;;;;;;3.33;1.67;;;29.80;45.70;;;;;;10706512;33;20051;-74
2022/05/18 13:02:48;;;;;;;2.20;1.05;;;29.80;45.70;;;;;;10718654;33;20025;-74
2022/05/18 13:09:26;;;;;;;4.22;1.58;;;29.80;45.00;;;;;;10720156;33;20029;-74
2022/05/18 13:15:42;;;;;;;3.35;1.60;;;29.80;44.60;;;;;;10728064;33;20087;-73
2022/05/18 13:21:52;;;;;;;2.70;1.52;;;29.80;44.80;;;;;;10901042;32;20041;-72
2022/05/18 13:27:57;;;;;;;2.95;1.50;;;29.90;44.40;;;;;;10923642;32;20038;-73
2022/05/18 13:34:12;;;;;;;2.53;1.90;;;29.80;44.00;;;;;;10932262;32;20027;-73
2022/05/18 13:40:14;;;;;;;3.12;1.37;;;29.70;43.90;;;;;;10940342;32;20035;-73
2022/05/18 13:46:23;;;;;;;3.08;1.80;;;29.70;44.40;;;;;;10924832;32;20054;-74
2022/05/18 13:52:32;;;;;;;1.67;1.37;;;29.80;44.10;;;;;;10942447;32;20019;-74
2022/05/18 13:58:39;;;;;;;1.90;1.20;;;30.00;43.90;;;;;;10928648;32;20019;-74
2022/05/18 14:04:43;;;;;;;3.15;1.45;;;30.00;43.50;;;;;;10938660;32;20088;-72
2022/05/18 14:10:46;;;;;;;13.30;1.95;;;30.00;42.80;;;;;;10942193;32;20019;-73
2022/05/18 14:16:56;;;;;;;2.60;1.60;;;30.00;43.30;;;;;;10937459;32;20030;-73
2022/05/18 14:23:31;;;;;;;3.17;1.10;;;29.90;42.80;;;;;;10938155;32;20041;-73
2022/05/18 14:29:54;;;;;;;1.67;1.42;;;29.90;43.30;;;;;;10941820;32;20331;-73
2022/05/18 14:36:00;;;;;;;5.55;1.83;;;29.90;42.70;;;;;;10948031;32;20100;-72
2022/05/18 14:42:03;;;;;;;3.05;1.12;;;29.80;43.00;;;;;;10949204;32;20387;-74
2022/05/18 14:48:05;;;;;;;2.37;1.33;;;29.70;43.40;;;;;;10948598;32;20301;-73
2022/05/18 14:54:15;;;;;;;4.37;1.42;;;29.70;43.10;;;;;;10948484;32;20035;-73
2022/05/18 15:00:40;;;;;;;13.98;2.30;;;29.80;43.60;;;;;;10932516;32;20429;-73
2022/05/18 15:06:44;;;;;;;4.50;1.98;;;29.80;43.90;;;;;;10935073;32;20031;-74
2022/05/18 15:12:51;;;;;;;2.78;1.20;;;29.80;43.50;;;;;;10947715;32;20045;-73
2022/05/18 15:19:14;;;;;;;2.95;1.67;;;29.80;43.60;;;;;;10948492;32;20022;-73
2022/05/18 15:25:29;;;;;;;3.00;1.50;;;29.80;43.90;;;;;;10948596;32;20045;-73
2022/05/18 15:31:39;;;;;;;4.62;2.00;;;29.80;42.80;;;;;;10947456;32;20055;-73
2022/05/18 15:37:45;;;;;;;5.18;2.08;;;29.90;42.90;;;;;;10947063;32;20331;-73
2022/05/18 15:44:01;;;;;;;4.57;1.27;;;29.80;42.70;;;;;;10942469;32;20035;-73
2022/05/18 15:50:19;;;;;;;3.58;1.60;;;29.80;43.10;;;;;;10947349;32;20041;-72
2022/05/18 15:56:24;;;;;;;3.72;1.70;;;29.80;42.50;;;;;;10942983;32;20046;-72
2022/05/18 16:02:30;;;;;;;4.20;1.20;;;29.80;42.70;;;;;;10946334;32;20031;-73
2022/05/18 16:08:34;;;;;;;2.77;1.17;;;29.90;42.80;;;;;;10930133;32;20387;-73
2022/05/18 16:14:36;;;;;;;5.22;1.55;;;30.00;42.60;;;;;;10939565;32;20575;-72
2022/05/18 16:20:39;;;;;;;7.43;2.05;;;30.00;42.50;;;;;;10932161;32;20391;-73
2022/05/18 16:26:42;;;;;;;2.28;1.40;;;30.00;42.20;;;;;;10943912;32;20359;-72
2022/05/18 16:32:44;;;;;;;1.42;1.10;;;30.00;42.50;;;;;;10945990;32;20046;-72
2022/05/18 16:38:46;;;;;;;1.70;1.33;;;30.00;42.30;;;;;;10943538;32;20293;-72
2022/05/18 16:44:51;;;;;;;4.05;1.12;;;29.90;42.00;;;;;;10931050;32;20043;-73
2022/05/18 16:50:54;;;;;;;1.77;1.17;;;29.80;42.80;;;;;;10944839;32;20383;-73
2022/05/18 16:56:59;;;;;;;5.35;1.27;;;29.50;43.50;;;;;;10944759;32;20026;-73
2022/05/18 17:03:13;;;;;;;2.15;1.00;;;29.30;44.00;;;;;;10944116;32;20398;-73
2022/05/18 17:09:39;;;;;;;2.42;0.75;;;29.20;44.90;;;;;;10943117;32;20066;-73
2022/05/18 17:15:42;;;;;;;1.23;0.80;;;28.90;45.80;;;;;;10971769;27;20361;-73
2022/05/18 17:21:44;;;;;;;0.75;0.75;;;28.70;46.80;;;;;;11012676;32;20041;-73
2022/05/18 17:27:47;;;;;;;1.77;1.17;;;28.60;47.70;;;;;;10990907;32;20030;-74
2022/05/18 17:33:49;;;;;;;2.55;1.15;;;28.70;47.70;;;;;;11018630;32;20014;-73
2022/05/18 17:40:24;;;;;;;2.05;1.08;;;28.60;48.30;;;;;;11016085;32;20030;-73
2022/05/18 17:46:26;;;;;;;1.52;0.80;;;29.00;48.00;;;;;;11018292;32;20362;-73
2022/05/18 17:52:28;;;;;;;2.47;1.35;;;28.90;48.00;;;;;;11017564;32;20018;-73
2022/05/18 17:58:53;;;;;;;2.85;0.75;;;28.70;48.80;;;;;;11015731;32;20048;-73
2022/05/18 18:04:55;;;;;;;1.65;1.02;;;28.40;49.50;;;;;;11017524;32;20033;-73
2022/05/18 18:11:03;;;;;;;2.37;1.33;;;28.20;50.00;;;;;;11017699;32;20022;-73
2022/05/18 18:17:09;;;;;;;1.80;0.98;;;28.00;50.80;;;;;;11013039;32;20444;-73
2022/05/18 18:23:26;;;;;;;1.77;1.30;;;27.90;51.20;;;;;;11017545;32;20058;-73
2022/05/18 18:29:28;;;;;;;2.47;1.33;;;27.80;51.70;;;;;;11017289;32;20026;-73
2022/05/18 18:35:32;;;;;;;2.15;1.35;;;27.70;52.10;;;;;;11015172;32;20044;-73
2022/05/18 18:41:41;;;;;;;4.05;1.17;;;27.60;52.60;;;;;;11015585;32;20053;-73
2022/05/18 18:47:43;;;;;;;3.83;1.48;;;27.50;53.00;;;;;;11012049;32;20026;-73
2022/05/18 19:00:57;;;;;;;2.15;1.10;;;27.30;53.90;;;;;;11011621;32;20044;-73
2022/05/18 19:07:02;;;;;;;1.75;1.23;;;27.20;54.30;;;;;;11015204;32;20350;-73
2022/05/18 19:13:05;;;;;;;2.30;1.10;;;27.10;54.80;;;;;;11015618;32;20395;-73
2022/05/18 19:19:06;;;;;;;4.18;1.65;;;27.00;55.20;;;;;;11019246;32;20045;-73
2022/05/18 19:25:13;;;;;;;4.25;1.65;;;27.00;55.60;;;;;;11022170;32;20017;-73
2022/05/18 19:31:16;;;;;;;2.13;1.20;;;26.80;56.20;;;;;;11020211;32;20318;-73
2022/05/18 19:37:18;;;;;;;2.65;1.52;;;26.80;56.50;;;;;;11017509;32;20018;-73
2022/05/18 19:43:25;;;;;;;2.42;1.25;;;26.60;56.90;;;;;;11020348;32;20022;-73
2022/05/18 19:49:27;;;;;;;4.72;1.83;;;26.50;57.10;;;;;;11018453;32;20068;-71
2022/05/18 19:55:30;;;;;;;3.92;1.70;;;26.30;57.80;;;;;;11018431;32;20316;-72
2022/05/18 20:01:34;;;;;;;2.95;1.85;;;26.30;58.40;;;;;;11019142;32;20026;-72
2022/05/18 20:07:37;;;;;;;2.92;1.37;;;26.30;58.60;;;;;;11019243;32;20034;-72
2022/05/18 20:13:40;;;;;;;2.72;1.50;;;26.30;59.10;;;;;;11019210;32;20187;-72
2022/05/18 20:19:48;;;;;;;2.80;1.30;;;26.20;59.10;;;;;;11018759;32;20037;-72
2022/05/18 20:25:52;;;;;;;2.45;1.75;;;26.20;59.30;;;;;;11019169;32;20037;-71
2022/05/18 20:31:58;;;;;;;3.30;1.83;;;26.20;59.90;;;;;;11018737;32;20027;-71
2022/05/18 20:38:00;;;;;;;4.72;1.27;;;26.10;60.90;;;;;;11004203;32;20030;-71
2022/05/18 20:44:08;;;;;;;1.70;1.12;;;26.00;61.50;;;;;;11019404;32;20378;-72
2022/05/18 20:50:16;;;;;;;1.77;1.25;;;25.90;61.60;;;;;;11019031;32;20029;-72
2022/05/18 20:56:28;;;;;;;;;;;25.90;61.50;;;;;;11019694;32;20018;-71
2022/05/18 21:02:30;;;;;;;3.00;1.37;;;25.90;61.80;;;;;;11019885;32;20206;-71
2022/05/18 21:08:32;;;;;;;2.35;1.48;;;25.80;62.90;;;;;;11015328;32;20066;-72
2022/05/18 21:14:38;;;;;;;1.98;1.73;;;25.80;63.30;;;;;;11019447;32;20022;-72
2022/05/18 21:20:41;;;;;;;1.92;1.45;;;25.80;63.00;;;;;;10979473;32;20346;-72
2022/05/18 21:26:48;;;;;;;3.35;1.80;;;25.80;63.10;;;;;;10980829;32;20023;-72
2022/05/18 21:32:54;;;;;;;2.50;1.48;;;25.80;63.40;;;;;;10977992;32;20045;-72
2022/05/18 21:38:56;;;;;;;2.30;1.55;;;25.80;63.50;;;;;;10980286;32;20307;-72
2022/05/18 21:44:58;;;;;;;3.60;1.73;;;25.70;64.40;;;;;;10980249;32;20395;-72
2022/05/18 21:51:01;;;;;;;2.58;1.83;;;25.60;64.30;;;;;;10966503;32;20288;-72
2022/05/18 21:57:09;;;;;;;2.12;1.65;;;25.50;64.40;;;;;;10979896;32;20038;-72
2022/05/18 22:03:15;;;;;;;3.33;1.75;;;25.40;64.80;;;;;;10979859;32;20072;-72
2022/05/18 22:09:18;;;;;;;2.85;1.80;;;25.30;65.60;;;;;;10979557;32;20026;-72
2022/05/18 22:15:37;;;;;;;2.75;1.67;;;25.30;65.40;;;;;;10979776;32;20049;-72
2022/05/18 22:21:39;;;;;;;2.43;1.70;;;25.30;65.20;;;;;;10979547;32;20122;-72
2022/05/18 22:27:48;;;;;;;3.17;1.98;;;25.30;65.40;;;;;;10979397;32;20061;-72
2022/05/18 22:33:50;;;;;;;;;;;25.20;65.40;;;;;;10976837;32;20030;-72
2022/05/18 22:39:52;;;;;;;2.25;1.83;;;25.20;65.30;;;;;;10979233;32;19971;-71
2022/05/18 22:45:55;;;;;;;2.67;1.70;;;25.20;65.40;;;;;;10979069;32;20018;-72
2022/05/18 22:51:57;;;;;;;2.47;1.70;;;25.20;66.00;;;;;;10978999;32;20056;-72
2022/05/18 22:57:59;;;;;;;2.58;1.62;;;25.10;66.40;;;;;;10986278;32;20030;-71
2022/05/18 23:04:01;;;;;;;3.03;2.10;;;25.00;67.30;;;;;;10985998;32;20038;-71
2022/05/18 23:10:05;;;;;;;3.00;1.80;;;25.00;67.70;;;;;;10985705;32;20050;-72
2022/05/18 23:16:09;;;;;;;4.78;2.28;;;25.00;67.40;;;;;;10985490;32;20041;-71
2022/05/18 23:22:13;;;;;;;5.47;2.55;;;24.90;67.80;;;;;;10985350;32;20031;-71
2022/05/18 23:28:16;;;;;;;4.87;2.37;;;24.80;68.60;;;;;;10985001;32;20018;-71
2022/05/18 23:34:20;;;;;;;8.38;2.53;;;24.70;68.90;;;;;;10985070;32;20015;-71
2022/05/18 23:40:22;;;;;;;5.15;2.22;;;24.80;68.70;;;;;;10984812;32;20042;-72
2022/05/18 23:46:29;;;;;;;2.90;2.17;;;24.80;68.60;;;;;;10984470;32;20022;-71
2022/05/18 23:52:31;;;;;;;4.10;2.42;;;24.80;68.70;;;;;;10984227;32;20049;-71
2022/05/18 23:58:37;;;;;;;5.40;2.42;;;24.80;68.70;;;;;;10984076;32;20015;-71
